sensor_id;sensor_type;location;lat;lon;timestamp;temperature;humidity
49242;DHT22;35079;52.704;13.814;2023-04-16T00:01:48;9.90;99.90
49242;DHT22;35079;52.704;13.814;2023-04-16T00:04:14;9.80;99.90
49242;DHT22;35079;52.704;13.814;2023-04-16T00:06:39;9.80;99.90
49242;DHT22;35079;52.704;13.814;2023-04-16T00:09:05;9.90;99.90
49242;DHT22;35079;52.704;13.814;2023-04-16T00:11:31;9.90;99.90
49242;DHT22;35079;52.704;13.814;2023-04-16T00:13:56;9.90;99.90
49242;DHT22;35079;52.704;13.814;2023-04-16T00:16:22;9.80;99.90
49242;DHT22;35079;52.704;13.814;2023-04-16T00:18:47;9.80;99.90
49242;DHT22;35079;52.704;13.814;2023-04-16T00:21:13;9.80;99.90
49242;DHT22;35079;52.704;13.814;2023-04-16T00:23:39;9.80;99.90
49242;DHT22;35079;52.704;13.814;2023-04-16T00:26:04;10.00;99.90
49242;DHT22;35079;52.704;13.814;2023-04-16T00:28:30;9.90;99.90
49242;DHT22;35079;52.704;13.814;2023-04-16T00:30:55;9.90;99.90
49242;DHT22;35079;52.704;13.814;2023-04-16T00:33:22;9.90;99.90
49242;DHT22;35079;52.704;13.814;2023-04-16T00:35:48;9.90;99.90
49242;DHT22;35079;52.704;13.814;2023-04-16T00:38:13;9.90;99.90
49242;DHT22;35079;52.704;13.814;2023-04-16T00:40:39;9.90;99.90
49242;DHT22;35079;52.704;13.814;2023-04-16T00:43:05;9.80;99.90
49242;DHT22;35079;52.704;13.814;2023-04-16T00:45:30;9.90;99.90
49242;DHT22;35079;52.704;13.814;2023-04-16T00:47:57;9.90;99.90
49242;DHT22;35079;52.704;13.814;2023-04-16T00:50:23;9.80;99.90
49242;DHT22;35079;52.704;13.814;2023-04-16T00:52:49;9.80;99.90
49242;DHT22;35079;52.704;13.814;2023-04-16T00:55:15;9.90;99.90
49242;DHT22;35079;52.704;13.814;2023-04-16T00:57:43;9.80;99.90
49242;DHT22;35079;52.704;13.814;2023-04-16T01:00:09;9.90;99.90
49242;DHT22;35079;52.704;13.814;2023-04-16T01:02:35;9.80;99.90
49242;DHT22;35079;52.704;13.814;2023-04-16T01:05:01;10.00;99.90
49242;DHT22;35079;52.704;13.814;2023-04-16T01:07:27;9.90;99.90
49242;DHT22;35079;52.704;13.814;2023-04-16T01:09:53;9.90;99.90
49242;DHT22;35079;52.704;13.814;2023-04-16T01:12:19;9.80;99.90
49242;DHT22;35079;52.704;13.814;2023-04-16T01:14:45;9.90;99.90
49242;DHT22;35079;52.704;13.814;2023-04-16T01:17:11;9.80;99.90
49242;DHT22;35079;52.704;13.814;2023-04-16T01:19:36;9.90;99.90
49242;DHT22;35079;52.704;13.814;2023-04-16T01:22:03;9.90;99.90
49242;DHT22;35079;52.704;13.814;2023-04-16T01:24:29;9.90;99.90
49242;DHT22;35079;52.704;13.814;2023-04-16T01:26:57;9.70;99.90
49242;DHT22;35079;52.704;13.814;2023-04-16T01:29:23;9.80;99.90
49242;DHT22;35079;52.704;13.814;2023-04-16T01:31:49;9.80;99.90
49242;DHT22;35079;52.704;13.814;2023-04-16T01:34:15;9.70;99.90
49242;DHT22;35079;52.704;13.814;2023-04-16T01:36:40;9.80;99.90
49242;DHT22;35079;52.704;13.814;2023-04-16T01:39:06;9.80;99.90
49242;DHT22;35079;52.704;13.814;2023-04-16T01:41:33;9.70;99.90
49242;DHT22;35079;52.704;13.814;2023-04-16T01:43:59;9.90;99.90
49242;DHT22;35079;52.704;13.814;2023-04-16T01:46:30;9.80;99.90
49242;DHT22;35079;52.704;13.814;2023-04-16T01:49:00;9.80;99.90
49242;DHT22;35079;52.704;13.814;2023-04-16T01:51:27;9.80;99.90
49242;DHT22;35079;52.704;13.814;2023-04-16T01:53:53;9.80;99.90
49242;DHT22;35079;52.704;13.814;2023-04-16T01:56:19;9.70;99.90
49242;DHT22;35079;52.704;13.814;2023-04-16T01:58:45;9.80;99.90
49242;DHT22;35079;52.704;13.814;2023-04-16T02:01:12;9.80;99.90
49242;DHT22;35079;52.704;13.814;2023-04-16T02:03:38;9.80;99.90
49242;DHT22;35079;52.704;13.814;2023-04-16T02:06:04;9.80;99.90
49242;DHT22;35079;52.704;13.814;2023-04-16T02:08:29;9.80;99.90
49242;DHT22;35079;52.704;13.814;2023-04-16T02:10:56;9.80;99.90
49242;DHT22;35079;52.704;13.814;2023-04-16T02:13:21;9.80;99.90
49242;DHT22;35079;52.704;13.814;2023-04-16T02:15:48;9.70;99.90
49242;DHT22;35079;52.704;13.814;2023-04-16T02:18:15;9.80;99.90
49242;DHT22;35079;52.704;13.814;2023-04-16T02:20:42;9.80;99.90
49242;DHT22;35079;52.704;13.814;2023-04-16T02:23:08;9.80;99.90
49242;DHT22;35079;52.704;13.814;2023-04-16T02:25:41;9.80;99.90
49242;DHT22;35079;52.704;13.814;2023-04-16T02:28:13;9.70;99.90
49242;DHT22;35079;52.704;13.814;2023-04-16T02:30:39;9.70;99.90
49242;DHT22;35079;52.704;13.814;2023-04-16T02:33:07;9.70;99.90
49242;DHT22;35079;52.704;13.814;2023-04-16T02:35:33;9.80;99.90
49242;DHT22;35079;52.704;13.814;2023-04-16T02:38:00;9.80;99.90
49242;DHT22;35079;52.704;13.814;2023-04-16T02:40:26;9.80;99.90
49242;DHT22;35079;52.704;13.814;2023-04-16T02:42:52;9.80;99.90
49242;DHT22;35079;52.704;13.814;2023-04-16T02:45:19;9.80;99.90
49242;DHT22;35079;52.704;13.814;2023-04-16T02:47:44;9.80;99.90
49242;DHT22;35079;52.704;13.814;2023-04-16T02:50:10;9.80;99.90
49242;DHT22;35079;52.704;13.814;2023-04-16T02:52:36;9.80;99.90
49242;DHT22;35079;52.704;13.814;2023-04-16T02:55:01;9.80;99.90
49242;DHT22;35079;52.704;13.814;2023-04-16T02:57:27;9.80;99.90
49242;DHT22;35079;52.704;13.814;2023-04-16T02:59:52;9.80;99.90
49242;DHT22;35079;52.704;13.814;2023-04-16T03:02:18;9.90;99.90
49242;DHT22;35079;52.704;13.814;2023-04-16T03:04:44;9.80;99.90
49242;DHT22;35079;52.704;13.814;2023-04-16T03:07:09;9.80;99.90
49242;DHT22;35079;52.704;13.814;2023-04-16T03:09:38;9.80;99.90
49242;DHT22;35079;52.704;13.814;2023-04-16T03:12:04;9.80;99.90
49242;DHT22;35079;52.704;13.814;2023-04-16T03:14:30;9.70;99.90
49242;DHT22;35079;52.704;13.814;2023-04-16T03:16:56;9.70;99.90
49242;DHT22;35079;52.704;13.814;2023-04-16T03:19:21;9.70;99.90
49242;DHT22;35079;52.704;13.814;2023-04-16T03:21:47;9.80;99.90
49242;DHT22;35079;52.704;13.814;2023-04-16T03:24:13;9.70;99.90
49242;DHT22;35079;52.704;13.814;2023-04-16T03:26:39;9.70;99.90
49242;DHT22;35079;52.704;13.814;2023-04-16T03:29:04;9.60;99.90
49242;DHT22;35079;52.704;13.814;2023-04-16T03:31:30;9.60;99.90
49242;DHT22;35079;52.704;13.814;2023-04-16T03:33:56;9.50;99.90
49242;DHT22;35079;52.704;13.814;2023-04-16T03:36:22;9.70;99.90
49242;DHT22;35079;52.704;13.814;2023-04-16T03:38:49;9.50;99.90
49242;DHT22;35079;52.704;13.814;2023-04-16T03:41:14;9.50;99.90
49242;DHT22;35079;52.704;13.814;2023-04-16T03:43:40;9.50;99.90
49242;DHT22;35079;52.704;13.814;2023-04-16T03:46:06;9.50;99.90
49242;DHT22;35079;52.704;13.814;2023-04-16T03:48:31;9.40;99.90
49242;DHT22;35079;52.704;13.814;2023-04-16T03:50:57;9.50;99.90
49242;DHT22;35079;52.704;13.814;2023-04-16T03:53:23;9.30;99.90
49242;DHT22;35079;52.704;13.814;2023-04-16T03:55:49;9.40;99.90
49242;DHT22;35079;52.704;13.814;2023-04-16T03:58:15;9.30;99.90
49242;DHT22;35079;52.704;13.814;2023-04-16T04:00:41;9.40;99.90
49242;DHT22;35079;52.704;13.814;2023-04-16T04:03:08;9.40;99.90
49242;DHT22;35079;52.704;13.814;2023-04-16T04:05:39;9.50;99.90
49242;DHT22;35079;52.704;13.814;2023-04-16T04:08:05;9.40;99.90
49242;DHT22;35079;52.704;13.814;2023-04-16T04:10:34;9.40;99.90
49242;DHT22;35079;52.704;13.814;2023-04-16T04:13:02;9.40;99.90
49242;DHT22;35079;52.704;13.814;2023-04-16T04:15:28;9.30;99.90
49242;DHT22;35079;52.704;13.814;2023-04-16T04:17:54;9.30;99.90
49242;DHT22;35079;52.704;13.814;2023-04-16T04:20:19;9.30;99.90
49242;DHT22;35079;52.704;13.814;2023-04-16T04:22:45;9.40;99.90
49242;DHT22;35079;52.704;13.814;2023-04-16T04:25:11;9.20;99.90
49242;DHT22;35079;52.704;13.814;2023-04-16T04:27:36;9.20;99.90
49242;DHT22;35079;52.704;13.814;2023-04-16T04:30:03;9.20;99.90
49242;DHT22;35079;52.704;13.814;2023-04-16T04:32:29;9.20;99.90
49242;DHT22;35079;52.704;13.814;2023-04-16T04:34:55;9.30;99.90
49242;DHT22;35079;52.704;13.814;2023-04-16T04:37:21;9.20;99.90
49242;DHT22;35079;52.704;13.814;2023-04-16T04:39:46;9.30;99.90
49242;DHT22;35079;52.704;13.814;2023-04-16T04:42:12;9.30;99.90
49242;DHT22;35079;52.704;13.814;2023-04-16T04:44:38;9.30;99.90
49242;DHT22;35079;52.704;13.814;2023-04-16T04:47:03;9.30;99.90
49242;DHT22;35079;52.704;13.814;2023-04-16T04:49:29;9.20;99.90
49242;DHT22;35079;52.704;13.814;2023-04-16T04:51:55;9.20;99.90
49242;DHT22;35079;52.704;13.814;2023-04-16T04:54:21;9.20;99.90
49242;DHT22;35079;52.704;13.814;2023-04-16T04:56:46;9.10;99.90
49242;DHT22;35079;52.704;13.814;2023-04-16T04:59:12;9.20;99.90
49242;DHT22;35079;52.704;13.814;2023-04-16T05:01:38;9.20;99.90
49242;DHT22;35079;52.704;13.814;2023-04-16T05:04:03;9.40;99.90
49242;DHT22;35079;52.704;13.814;2023-04-16T05:06:29;9.20;99.90
49242;DHT22;35079;52.704;13.814;2023-04-16T05:08:55;9.30;99.90
49242;DHT22;35079;52.704;13.814;2023-04-16T05:11:21;9.40;99.90
49242;DHT22;35079;52.704;13.814;2023-04-16T05:13:47;9.20;99.90
49242;DHT22;35079;52.704;13.814;2023-04-16T05:16:12;9.30;99.90
49242;DHT22;35079;52.704;13.814;2023-04-16T05:18:38;9.30;99.90
49242;DHT22;35079;52.704;13.814;2023-04-16T05:21:04;9.40;99.90
49242;DHT22;35079;52.704;13.814;2023-04-16T05:23:30;9.30;99.90
49242;DHT22;35079;52.704;13.814;2023-04-16T05:25:55;9.40;99.90
49242;DHT22;35079;52.704;13.814;2023-04-16T05:28:21;9.30;99.90
49242;DHT22;35079;52.704;13.814;2023-04-16T05:30:47;9.30;99.90
49242;DHT22;35079;52.704;13.814;2023-04-16T05:33:12;9.30;99.90
49242;DHT22;35079;52.704;13.814;2023-04-16T05:35:38;9.40;99.90
49242;DHT22;35079;52.704;13.814;2023-04-16T05:38:03;9.40;99.90
49242;DHT22;35079;52.704;13.814;2023-04-16T05:40:30;9.30;99.90
49242;DHT22;35079;52.704;13.814;2023-04-16T05:42:55;9.30;99.90
49242;DHT22;35079;52.704;13.814;2023-04-16T05:45:21;9.30;99.90
49242;DHT22;35079;52.704;13.814;2023-04-16T05:47:46;9.50;99.90
49242;DHT22;35079;52.704;13.814;2023-04-16T05:50:12;9.40;99.90
49242;DHT22;35079;52.704;13.814;2023-04-16T05:52:38;9.40;99.90
49242;DHT22;35079;52.704;13.814;2023-04-16T05:55:04;9.40;99.90
49242;DHT22;35079;52.704;13.814;2023-04-16T05:57:30;9.40;99.90
49242;DHT22;35079;52.704;13.814;2023-04-16T05:59:55;9.30;99.90
49242;DHT22;35079;52.704;13.814;2023-04-16T06:02:21;9.40;99.90
49242;DHT22;35079;52.704;13.814;2023-04-16T06:04:46;9.30;99.90
49242;DHT22;35079;52.704;13.814;2023-04-16T06:07:12;9.30;99.90
49242;DHT22;35079;52.704;13.814;2023-04-16T06:09:38;9.40;99.90
49242;DHT22;35079;52.704;13.814;2023-04-16T06:12:03;9.30;99.90
49242;DHT22;35079;52.704;13.814;2023-04-16T06:14:29;9.30;99.90
49242;DHT22;35079;52.704;13.814;2023-04-16T06:16:54;9.20;99.90
49242;DHT22;35079;52.704;13.814;2023-04-16T06:19:20;9.40;99.90
49242;DHT22;35079;52.704;13.814;2023-04-16T06:21:46;9.40;99.90
49242;DHT22;35079;52.704;13.814;2023-04-16T06:24:12;9.50;99.90
49242;DHT22;35079;52.704;13.814;2023-04-16T06:26:37;9.50;99.90
49242;DHT22;35079;52.704;13.814;2023-04-16T06:29:03;9.40;99.90
49242;DHT22;35079;52.704;13.814;2023-04-16T06:31:29;9.50;99.90
49242;DHT22;35079;52.704;13.814;2023-04-16T06:33:55;9.40;99.90
49242;DHT22;35079;52.704;13.814;2023-04-16T06:36:21;9.50;99.90
49242;DHT22;35079;52.704;13.814;2023-04-16T06:38:46;9.50;99.90
49242;DHT22;35079;52.704;13.814;2023-04-16T06:41:13;9.70;99.90
49242;DHT22;35079;52.704;13.814;2023-04-16T06:43:39;9.70;99.90
49242;DHT22;35079;52.704;13.814;2023-04-16T06:46:04;9.60;99.90
49242;DHT22;35079;52.704;13.814;2023-04-16T06:48:30;9.60;99.90
49242;DHT22;35079;52.704;13.814;2023-04-16T06:50:56;9.50;99.90
49242;DHT22;35079;52.704;13.814;2023-04-16T06:53:22;9.70;99.90
49242;DHT22;35079;52.704;13.814;2023-04-16T06:55:48;9.70;99.90
49242;DHT22;35079;52.704;13.814;2023-04-16T06:58:13;9.70;99.90
49242;DHT22;35079;52.704;13.814;2023-04-16T07:00:39;9.60;99.90
49242;DHT22;35079;52.704;13.814;2023-04-16T07:03:05;9.60;99.90
49242;DHT22;35079;52.704;13.814;2023-04-16T07:05:30;9.60;99.90
49242;DHT22;35079;52.704;13.814;2023-04-16T07:07:57;9.60;99.90
49242;DHT22;35079;52.704;13.814;2023-04-16T07:10:23;9.60;99.90
49242;DHT22;35079;52.704;13.814;2023-04-16T07:12:49;9.50;99.90
49242;DHT22;35079;52.704;13.814;2023-04-16T07:15:14;9.60;99.90
49242;DHT22;35079;52.704;13.814;2023-04-16T07:17:40;9.60;99.90
49242;DHT22;35079;52.704;13.814;2023-04-16T07:20:06;9.60;99.90
49242;DHT22;35079;52.704;13.814;2023-04-16T07:22:32;9.60;99.90
49242;DHT22;35079;52.704;13.814;2023-04-16T07:24:58;9.60;99.90
49242;DHT22;35079;52.704;13.814;2023-04-16T07:27:23;9.70;99.90
49242;DHT22;35079;52.704;13.814;2023-04-16T07:29:49;9.70;99.90
49242;DHT22;35079;52.704;13.814;2023-04-16T07:32:15;9.70;99.90
49242;DHT22;35079;52.704;13.814;2023-04-16T07:34:41;9.70;99.90
49242;DHT22;35079;52.704;13.814;2023-04-16T07:37:07;9.80;99.90
49242;DHT22;35079;52.704;13.814;2023-04-16T07:39:32;9.80;99.90
49242;DHT22;35079;52.704;13.814;2023-04-16T07:41:58;9.80;99.90
49242;DHT22;35079;52.704;13.814;2023-04-16T07:44:24;9.80;99.90
49242;DHT22;35079;52.704;13.814;2023-04-16T07:46:49;9.80;99.90
49242;DHT22;35079;52.704;13.814;2023-04-16T07:49:15;9.70;99.90
49242;DHT22;35079;52.704;13.814;2023-04-16T07:51:41;9.80;99.90
49242;DHT22;35079;52.704;13.814;2023-04-16T07:54:06;9.70;99.90
49242;DHT22;35079;52.704;13.814;2023-04-16T07:56:32;9.70;99.90
49242;DHT22;35079;52.704;13.814;2023-04-16T07:58:58;9.70;99.90
49242;DHT22;35079;52.704;13.814;2023-04-16T08:01:23;9.70;99.90
49242;DHT22;35079;52.704;13.814;2023-04-16T08:03:49;9.80;99.90
49242;DHT22;35079;52.704;13.814;2023-04-16T08:06:16;9.80;99.90
49242;DHT22;35079;52.704;13.814;2023-04-16T08:08:41;9.70;99.90
49242;DHT22;35079;52.704;13.814;2023-04-16T08:11:07;9.70;99.90
49242;DHT22;35079;52.704;13.814;2023-04-16T08:13:33;9.80;99.90
49242;DHT22;35079;52.704;13.814;2023-04-16T08:15:58;9.80;99.90
49242;DHT22;35079;52.704;13.814;2023-04-16T08:18:24;9.80;99.90
49242;DHT22;35079;52.704;13.814;2023-04-16T08:20:50;9.90;99.90
49242;DHT22;35079;52.704;13.814;2023-04-16T08:23:16;10.00;99.90
49242;DHT22;35079;52.704;13.814;2023-04-16T08:25:41;10.00;99.90
49242;DHT22;35079;52.704;13.814;2023-04-16T08:28:07;10.00;99.90
49242;DHT22;35079;52.704;13.814;2023-04-16T08:30:32;10.00;99.90
49242;DHT22;35079;52.704;13.814;2023-04-16T08:32:58;10.10;99.90
49242;DHT22;35079;52.704;13.814;2023-04-16T08:35:24;10.00;99.90
49242;DHT22;35079;52.704;13.814;2023-04-16T08:37:49;10.10;99.90
49242;DHT22;35079;52.704;13.814;2023-04-16T08:40:16;10.00;99.90
49242;DHT22;35079;52.704;13.814;2023-04-16T08:42:48;10.20;99.90
49242;DHT22;35079;52.704;13.814;2023-04-16T08:45:17;10.30;99.90
49242;DHT22;35079;52.704;13.814;2023-04-16T08:47:50;10.40;99.90
49242;DHT22;35079;52.704;13.814;2023-04-16T08:50:26;10.40;99.90
49242;DHT22;35079;52.704;13.814;2023-04-16T08:53:13;10.40;99.90
49242;DHT22;35079;52.704;13.814;2023-04-16T08:55:47;10.50;99.90
49242;DHT22;35079;52.704;13.814;2023-04-16T08:58:14;10.50;99.90
49242;DHT22;35079;52.704;13.814;2023-04-16T09:00:42;10.50;99.90
49242;DHT22;35079;52.704;13.814;2023-04-16T09:03:08;10.40;99.90
49242;DHT22;35079;52.704;13.814;2023-04-16T09:05:35;10.40;99.90
49242;DHT22;35079;52.704;13.814;2023-04-16T09:08:01;10.50;99.90
49242;DHT22;35079;52.704;13.814;2023-04-16T09:10:27;10.60;99.90
49242;DHT22;35079;52.704;13.814;2023-04-16T09:12:56;10.90;99.90
49242;DHT22;35079;52.704;13.814;2023-04-16T09:15:22;10.70;99.90
49242;DHT22;35079;52.704;13.814;2023-04-16T09:17:48;10.90;99.90
49242;DHT22;35079;52.704;13.814;2023-04-16T09:20:14;10.90;99.90
49242;DHT22;35079;52.704;13.814;2023-04-16T09:22:40;11.00;99.90
49242;DHT22;35079;52.704;13.814;2023-04-16T09:25:07;10.90;99.90
49242;DHT22;35079;52.704;13.814;2023-04-16T09:27:33;10.90;99.90
49242;DHT22;35079;52.704;13.814;2023-04-16T09:29:58;10.80;99.90
49242;DHT22;35079;52.704;13.814;2023-04-16T09:32:26;10.90;99.90
49242;DHT22;35079;52.704;13.814;2023-04-16T09:35:01;10.90;99.90
49242;DHT22;35079;52.704;13.814;2023-04-16T09:37:29;11.10;99.90
49242;DHT22;35079;52.704;13.814;2023-04-16T09:40:00;11.10;99.90
49242;DHT22;35079;52.704;13.814;2023-04-16T09:42:28;11.10;99.90
49242;DHT22;35079;52.704;13.814;2023-04-16T09:44:55;11.30;99.90
49242;DHT22;35079;52.704;13.814;2023-04-16T09:47:21;11.10;99.90
49242;DHT22;35079;52.704;13.814;2023-04-16T09:49:47;11.00;99.90
49242;DHT22;35079;52.704;13.814;2023-04-16T09:52:14;11.10;99.90
49242;DHT22;35079;52.704;13.814;2023-04-16T09:54:51;11.00;99.90
49242;DHT22;35079;52.704;13.814;2023-04-16T09:57:21;11.00;99.90
49242;DHT22;35079;52.704;13.814;2023-04-16T09:59:55;11.00;99.90
49242;DHT22;35079;52.704;13.814;2023-04-16T10:02:29;11.20;99.90
49242;DHT22;35079;52.704;13.814;2023-04-16T10:04:54;11.30;99.90
49242;DHT22;35079;52.704;13.814;2023-04-16T10:07:22;11.50;99.90
49242;DHT22;35079;52.704;13.814;2023-04-16T10:09:48;11.90;99.90
49242;DHT22;35079;52.704;13.814;2023-04-16T10:12:14;12.20;99.90
49242;DHT22;35079;52.704;13.814;2023-04-16T10:14:41;12.40;99.90
49242;DHT22;35079;52.704;13.814;2023-04-16T10:17:08;12.60;99.90
49242;DHT22;35079;52.704;13.814;2023-04-16T10:19:34;12.70;99.90
49242;DHT22;35079;52.704;13.814;2023-04-16T10:22:05;12.80;99.90
49242;DHT22;35079;52.704;13.814;2023-04-16T10:24:32;12.70;99.90
49242;DHT22;35079;52.704;13.814;2023-04-16T10:26:58;12.70;99.90
49242;DHT22;35079;52.704;13.814;2023-04-16T10:29:29;12.50;99.90
49242;DHT22;35079;52.704;13.814;2023-04-16T10:31:55;12.40;99.90
49242;DHT22;35079;52.704;13.814;2023-04-16T10:34:23;12.20;99.90
49242;DHT22;35079;52.704;13.814;2023-04-16T10:36:53;12.20;99.90
49242;DHT22;35079;52.704;13.814;2023-04-16T10:39:21;11.90;99.90
49242;DHT22;35079;52.704;13.814;2023-04-16T10:41:47;11.80;99.90
49242;DHT22;35079;52.704;13.814;2023-04-16T10:44:16;11.70;99.90
49242;DHT22;35079;52.704;13.814;2023-04-16T10:46:46;11.50;99.90
49242;DHT22;35079;52.704;13.814;2023-04-16T10:49:16;11.40;99.90
49242;DHT22;35079;52.704;13.814;2023-04-16T10:51:54;11.40;99.90
49242;DHT22;35079;52.704;13.814;2023-04-16T10:54:28;11.30;99.90
49242;DHT22;35079;52.704;13.814;2023-04-16T10:56:58;11.30;99.90
49242;DHT22;35079;52.704;13.814;2023-04-16T10:59:28;11.40;99.90
49242;DHT22;35079;52.704;13.814;2023-04-16T11:01:57;11.40;99.90
49242;DHT22;35079;52.704;13.814;2023-04-16T11:10:10;11.50;99.90
49242;DHT22;35079;52.704;13.814;2023-04-16T11:12:42;11.70;99.90
49242;DHT22;35079;52.704;13.814;2023-04-16T11:15:16;11.90;99.90
49242;DHT22;35079;52.704;13.814;2023-04-16T11:17:50;11.80;99.90
49242;DHT22;35079;52.704;13.814;2023-04-16T11:20:18;11.90;99.90
49242;DHT22;35079;52.704;13.814;2023-04-16T11:22:44;11.80;99.90
49242;DHT22;35079;52.704;13.814;2023-04-16T11:25:10;11.60;99.90
49242;DHT22;35079;52.704;13.814;2023-04-16T11:27:36;11.60;99.90
49242;DHT22;35079;52.704;13.814;2023-04-16T11:30:04;11.50;99.90
49242;DHT22;35079;52.704;13.814;2023-04-16T11:32:31;11.40;99.90
49242;DHT22;35079;52.704;13.814;2023-04-16T11:34:58;11.30;99.90
49242;DHT22;35079;52.704;13.814;2023-04-16T11:37:35;11.40;99.90
49242;DHT22;35079;52.704;13.814;2023-04-16T11:40:02;11.30;99.90
49242;DHT22;35079;52.704;13.814;2023-04-16T11:42:30;11.30;99.90
49242;DHT22;35079;52.704;13.814;2023-04-16T11:44:57;11.20;99.90
49242;DHT22;35079;52.704;13.814;2023-04-16T11:47:25;11.20;99.90
49242;DHT22;35079;52.704;13.814;2023-04-16T11:49:51;11.30;99.90
49242;DHT22;35079;52.704;13.814;2023-04-16T11:52:31;11.30;99.90
49242;DHT22;35079;52.704;13.814;2023-04-16T11:54:57;11.50;99.90
49242;DHT22;35079;52.704;13.814;2023-04-16T11:57:28;11.30;99.90
49242;DHT22;35079;52.704;13.814;2023-04-16T11:59:54;11.30;99.90
49242;DHT22;35079;52.704;13.814;2023-04-16T12:02:37;11.30;99.90
49242;DHT22;35079;52.704;13.814;2023-04-16T12:05:05;11.30;99.90
49242;DHT22;35079;52.704;13.814;2023-04-16T12:07:42;11.20;99.90
49242;DHT22;35079;52.704;13.814;2023-04-16T12:10:09;11.10;99.90
49242;DHT22;35079;52.704;13.814;2023-04-16T12:12:35;11.00;99.90
49242;DHT22;35079;52.704;13.814;2023-04-16T12:15:01;11.00;99.90
49242;DHT22;35079;52.704;13.814;2023-04-16T12:17:31;10.90;99.90
49242;DHT22;35079;52.704;13.814;2023-04-16T12:20:11;11.00;99.90
49242;DHT22;35079;52.704;13.814;2023-04-16T12:22:39;10.80;99.90
49242;DHT22;35079;52.704;13.814;2023-04-16T12:25:07;10.80;99.90
49242;DHT22;35079;52.704;13.814;2023-04-16T12:27:53;10.70;99.90
49242;DHT22;35079;52.704;13.814;2023-04-16T12:30:24;10.80;99.90
49242;DHT22;35079;52.704;13.814;2023-04-16T12:33:16;10.70;99.90
49242;DHT22;35079;52.704;13.814;2023-04-16T12:35:42;10.60;99.90
49242;DHT22;35079;52.704;13.814;2023-04-16T12:38:09;10.60;99.90
49242;DHT22;35079;52.704;13.814;2023-04-16T12:40:35;10.60;99.90
49242;DHT22;35079;52.704;13.814;2023-04-16T12:43:01;10.70;99.90
49242;DHT22;35079;52.704;13.814;2023-04-16T12:45:27;10.70;99.90
49242;DHT22;35079;52.704;13.814;2023-04-16T12:47:53;10.80;99.90
49242;DHT22;35079;52.704;13.814;2023-04-16T12:50:18;10.80;99.90
49242;DHT22;35079;52.704;13.814;2023-04-16T12:52:44;10.70;99.90
49242;DHT22;35079;52.704;13.814;2023-04-16T12:55:11;10.80;99.90
49242;DHT22;35079;52.704;13.814;2023-04-16T12:57:36;11.00;99.90
49242;DHT22;35079;52.704;13.814;2023-04-16T13:00:06;11.00;99.90
49242;DHT22;35079;52.704;13.814;2023-04-16T13:02:32;10.90;99.90
49242;DHT22;35079;52.704;13.814;2023-04-16T13:04:58;11.00;99.90
49242;DHT22;35079;52.704;13.814;2023-04-16T13:07:24;10.90;99.90
49242;DHT22;35079;52.704;13.814;2023-04-16T13:09:51;10.90;99.90
49242;DHT22;35079;52.704;13.814;2023-04-16T13:12:17;11.10;99.90
49242;DHT22;35079;52.704;13.814;2023-04-16T13:14:43;10.90;99.90
49242;DHT22;35079;52.704;13.814;2023-04-16T13:17:08;11.10;99.90
49242;DHT22;35079;52.704;13.814;2023-04-16T13:19:34;11.10;99.90
49242;DHT22;35079;52.704;13.814;2023-04-16T13:22:00;11.10;99.90
49242;DHT22;35079;52.704;13.814;2023-04-16T13:24:26;11.10;99.90
49242;DHT22;35079;52.704;13.814;2023-04-16T13:26:52;11.10;99.90
49242;DHT22;35079;52.704;13.814;2023-04-16T13:29:21;11.20;99.90
49242;DHT22;35079;52.704;13.814;2023-04-16T13:31:47;11.20;99.90
49242;DHT22;35079;52.704;13.814;2023-04-16T13:34:13;11.20;99.90
49242;DHT22;35079;52.704;13.814;2023-04-16T13:36:38;11.20;99.90
49242;DHT22;35079;52.704;13.814;2023-04-16T13:39:04;11.20;99.90
49242;DHT22;35079;52.704;13.814;2023-04-16T13:41:35;11.40;99.90
49242;DHT22;35079;52.704;13.814;2023-04-16T13:44:00;11.40;99.90
49242;DHT22;35079;52.704;13.814;2023-04-16T13:46:26;11.40;99.90
49242;DHT22;35079;52.704;13.814;2023-04-16T13:48:53;11.40;99.90
49242;DHT22;35079;52.704;13.814;2023-04-16T13:51:19;11.20;99.90
49242;DHT22;35079;52.704;13.814;2023-04-16T13:53:44;11.20;99.90
49242;DHT22;35079;52.704;13.814;2023-04-16T13:56:11;11.00;99.90
49242;DHT22;35079;52.704;13.814;2023-04-16T13:58:36;11.00;99.90
49242;DHT22;35079;52.704;13.814;2023-04-16T14:01:02;11.00;99.90
49242;DHT22;35079;52.704;13.814;2023-04-16T14:03:28;11.10;99.90
49242;DHT22;35079;52.704;13.814;2023-04-16T14:05:53;10.90;99.90
49242;DHT22;35079;52.704;13.814;2023-04-16T14:08:19;10.70;99.90
49242;DHT22;35079;52.704;13.814;2023-04-16T14:10:49;10.70;99.90
49242;DHT22;35079;52.704;13.814;2023-04-16T14:13:17;10.70;99.90
49242;DHT22;35079;52.704;13.814;2023-04-16T14:15:42;10.60;99.90
49242;DHT22;35079;52.704;13.814;2023-04-16T14:18:08;10.70;99.90
49242;DHT22;35079;52.704;13.814;2023-04-16T14:20:36;10.70;99.90
49242;DHT22;35079;52.704;13.814;2023-04-16T14:23:07;10.60;99.90
49242;DHT22;35079;52.704;13.814;2023-04-16T14:25:33;10.70;99.90
49242;DHT22;35079;52.704;13.814;2023-04-16T14:27:59;10.70;99.90
49242;DHT22;35079;52.704;13.814;2023-04-16T14:30:25;10.70;99.90
49242;DHT22;35079;52.704;13.814;2023-04-16T14:32:51;10.70;99.90
49242;DHT22;35079;52.704;13.814;2023-04-16T14:35:17;10.70;99.90
49242;DHT22;35079;52.704;13.814;2023-04-16T14:37:42;10.60;99.90
49242;DHT22;35079;52.704;13.814;2023-04-16T14:40:08;10.80;99.90
49242;DHT22;35079;52.704;13.814;2023-04-16T14:42:35;10.60;99.90
49242;DHT22;35079;52.704;13.814;2023-04-16T14:45:01;10.70;99.90
49242;DHT22;35079;52.704;13.814;2023-04-16T14:47:27;10.90;99.90
49242;DHT22;35079;52.704;13.814;2023-04-16T14:49:53;11.00;99.90
49242;DHT22;35079;52.704;13.814;2023-04-16T14:52:19;11.00;99.90
49242;DHT22;35079;52.704;13.814;2023-04-16T14:54:44;10.90;99.90
49242;DHT22;35079;52.704;13.814;2023-04-16T14:57:10;11.10;99.90
49242;DHT22;35079;52.704;13.814;2023-04-16T14:59:36;11.00;99.90
49242;DHT22;35079;52.704;13.814;2023-04-16T15:02:02;11.00;99.90
49242;DHT22;35079;52.704;13.814;2023-04-16T15:04:28;10.90;99.90
49242;DHT22;35079;52.704;13.814;2023-04-16T15:06:54;10.90;99.90
49242;DHT22;35079;52.704;13.814;2023-04-16T15:09:24;10.90;99.90
49242;DHT22;35079;52.704;13.814;2023-04-16T15:11:51;10.70;99.90
49242;DHT22;35079;52.704;13.814;2023-04-16T15:14:17;10.70;99.90
49242;DHT22;35079;52.704;13.814;2023-04-16T15:16:43;10.60;99.90
49242;DHT22;35079;52.704;13.814;2023-04-16T15:19:09;10.50;99.90
49242;DHT22;35079;52.704;13.814;2023-04-16T15:21:35;10.50;99.90
49242;DHT22;35079;52.704;13.814;2023-04-16T15:24:00;10.50;99.90
49242;DHT22;35079;52.704;13.814;2023-04-16T15:26:26;10.40;99.90
49242;DHT22;35079;52.704;13.814;2023-04-16T15:28:52;10.40;99.90